createdAt,value
2022-08-30T00:03:49.133Z,14.55
2022-08-30T00:18:48.824Z,13.58
2022-08-30T00:33:49.037Z,12.97
2022-08-30T00:48:48.740Z,9.42
2022-08-30T01:03:49.167Z,7.75
2022-08-30T01:18:49.095Z,6.75
2022-08-30T01:33:48.996Z,5.94
2022-08-30T01:48:53.046Z,6.33
2022-08-30T02:03:49.374Z,6.94
2022-08-30T02:18:48.475Z,8.87
2022-08-30T02:33:49.302Z,9.3
2022-08-30T02:48:48.459Z,8.3
2022-08-30T03:03:48.485Z,7.22
2022-08-30T03:18:48.600Z,7.22
2022-08-30T03:33:48.692Z,8.11
2022-08-30T03:48:49.304Z,8
2022-08-30T04:03:48.562Z,8.13
2022-08-30T04:18:48.612Z,8.84
2022-08-30T04:33:49.078Z,9.06
2022-08-30T04:48:49.024Z,8.42
2022-08-30T05:03:49.200Z,8.25
2022-08-30T05:18:49.240Z,10.54
2022-08-30T05:33:49.333Z,10.16
2022-08-30T05:48:49.199Z,11.53
2022-08-30T06:03:48.937Z,8.74
2022-08-30T06:18:48.719Z,8.18
2022-08-30T06:33:48.682Z,8.45
2022-08-30T06:48:49.178Z,8.77
2022-08-30T07:03:48.930Z,8.62
2022-08-30T07:18:48.426Z,9.68
2022-08-30T07:33:48.682Z,8.32
2022-08-30T07:48:48.510Z,7.66
2022-08-30T08:03:48.755Z,7.91
2022-08-30T08:18:49.148Z,8.06
2022-08-30T08:33:49.121Z,7.76
2022-08-30T08:48:59.429Z,7.64
2022-08-30T09:04:03.942Z,6.99
2022-08-30T09:18:52.633Z,7.41
2022-08-30T09:33:49.152Z,7.44
2022-08-30T09:48:48.706Z,7.65
2022-08-30T10:03:48.700Z,7.88
2022-08-30T10:18:49.214Z,7.57
2022-08-30T10:33:48.817Z,7.13
2022-08-30T10:48:49.220Z,6.54
2022-08-30T11:03:48.538Z,7.12
2022-08-30T11:18:51.062Z,7.52
2022-08-30T11:33:49.129Z,7.24
2022-08-30T11:48:53.974Z,7.55
2022-08-30T12:03:48.876Z,8.55
2022-08-30T12:18:48.490Z,8.23
2022-08-30T12:33:48.975Z,8.32
2022-08-30T12:48:48.745Z,9.37
2022-08-30T13:03:48.668Z,8.99
2022-08-30T13:18:49.193Z,9.33
2022-08-30T13:33:48.782Z,8.85
2022-08-30T13:48:49.112Z,9.18
2022-08-30T14:18:49.047Z,8.86
2022-08-30T14:33:48.890Z,8.97
2022-08-30T14:48:50.320Z,9.21
2022-08-30T15:03:49.075Z,9
2022-08-30T15:33:50.173Z,8.95
2022-08-30T15:48:49.682Z,9.64
2022-08-30T16:18:53.996Z,9.6
2022-08-30T16:33:52.574Z,9.6
2022-08-30T16:48:50.288Z,9.72
2022-08-30T22:03:49.420Z,12.91
2022-08-30T22:18:49.021Z,13.56
2022-08-30T22:33:49.009Z,13.87
2022-08-30T22:48:49.284Z,12.29
2022-08-30T23:03:49.107Z,11.5
2022-08-30T23:18:48.803Z,8.83
2022-08-30T23:33:48.782Z,8.36
2022-08-30T23:48:50.702Z,8.08
